sensor_id;sensor_type;location;lat;lon;timestamp;pressure;altitude;pressure_sealevel;temperature
15575;BMP180;7888;46.748;8.102;2022-10-23T00:01:26;94227.00;;;17.30
15575;BMP180;7888;46.748;8.102;2022-10-23T00:04:00;94225.00;;;17.40
15575;BMP180;7888;46.748;8.102;2022-10-23T00:06:28;94219.00;;;17.30
15575;BMP180;7888;46.748;8.102;2022-10-23T00:08:55;94220.00;;;17.40
15575;BMP180;7888;46.748;8.102;2022-10-23T00:11:25;94229.00;;;17.30
15575;BMP180;7888;46.748;8.102;2022-10-23T00:13:56;94227.00;;;17.30
15575;BMP180;7888;46.748;8.102;2022-10-23T00:16:22;94218.00;;;17.30
15575;BMP180;7888;46.748;8.102;2022-10-23T00:18:48;94215.00;;;17.30
15575;BMP180;7888;46.748;8.102;2022-10-23T00:21:16;94218.00;;;17.30
15575;BMP180;7888;46.748;8.102;2022-10-23T00:23:43;94219.00;;;17.30
15575;BMP180;7888;46.748;8.102;2022-10-23T00:26:09;94218.00;;;17.30
15575;BMP180;7888;46.748;8.102;2022-10-23T00:28:36;94226.00;;;17.30
15575;BMP180;7888;46.748;8.102;2022-10-23T00:31:04;94224.00;;;17.30
15575;BMP180;7888;46.748;8.102;2022-10-23T00:33:34;94229.00;;;17.20
15575;BMP180;7888;46.748;8.102;2022-10-23T00:36:04;94242.00;;;17.20
15575;BMP180;7888;46.748;8.102;2022-10-23T00:38:31;94243.00;;;17.20
15575;BMP180;7888;46.748;8.102;2022-10-23T00:40:56;94236.00;;;17.20
15575;BMP180;7888;46.748;8.102;2022-10-23T00:43:27;94240.00;;;17.20
15575;BMP180;7888;46.748;8.102;2022-10-23T00:45:53;94240.00;;;17.20
15575;BMP180;7888;46.748;8.102;2022-10-23T00:48:20;94231.00;;;17.20
15575;BMP180;7888;46.748;8.102;2022-10-23T00:50:48;94248.00;;;17.10
15575;BMP180;7888;46.748;8.102;2022-10-23T00:53:17;94231.00;;;17.10
15575;BMP180;7888;46.748;8.102;2022-10-23T00:55:48;94227.00;;;17.10
15575;BMP180;7888;46.748;8.102;2022-10-23T00:58:18;94237.00;;;17.10
15575;BMP180;7888;46.748;8.102;2022-10-23T01:00:48;94232.00;;;17.10
15575;BMP180;7888;46.748;8.102;2022-10-23T01:03:18;94228.00;;;17.10
15575;BMP180;7888;46.748;8.102;2022-10-23T01:05:49;94226.00;;;17.00
15575;BMP180;7888;46.748;8.102;2022-10-23T01:17:21;94205.00;;;16.90
15575;BMP180;7888;46.748;8.102;2022-10-23T01:20:11;94211.00;;;16.90
15575;BMP180;7888;46.748;8.102;2022-10-23T01:25:57;94200.00;;;16.80
15575;BMP180;7888;46.748;8.102;2022-10-23T01:28:37;94191.00;;;16.80
15575;BMP180;7888;46.748;8.102;2022-10-23T01:31:10;94183.00;;;16.80
15575;BMP180;7888;46.748;8.102;2022-10-23T01:33:45;94182.00;;;16.80
15575;BMP180;7888;46.748;8.102;2022-10-23T01:36:15;94183.00;;;16.80
15575;BMP180;7888;46.748;8.102;2022-10-23T01:39:07;94185.00;;;16.70
15575;BMP180;7888;46.748;8.102;2022-10-23T01:41:41;94183.00;;;16.70
15575;BMP180;7888;46.748;8.102;2022-10-23T01:44:32;94185.00;;;16.70
15575;BMP180;7888;46.748;8.102;2022-10-23T01:47:04;94180.00;;;16.70
15575;BMP180;7888;46.748;8.102;2022-10-23T01:49:32;94164.00;;;16.70
15575;BMP180;7888;46.748;8.102;2022-10-23T01:52:02;94150.00;;;16.70
15575;BMP180;7888;46.748;8.102;2022-10-23T01:54:35;94151.00;;;16.70
15575;BMP180;7888;46.748;8.102;2022-10-23T01:57:07;94147.00;;;16.70
15575;BMP180;7888;46.748;8.102;2022-10-23T01:59:41;94156.00;;;16.70
15575;BMP180;7888;46.748;8.102;2022-10-23T02:02:11;94140.00;;;16.70
15575;BMP180;7888;46.748;8.102;2022-10-23T02:04:56;94137.00;;;16.70
15575;BMP180;7888;46.748;8.102;2022-10-23T02:07:23;94146.00;;;16.70
15575;BMP180;7888;46.748;8.102;2022-10-23T02:09:49;94137.00;;;16.70
15575;BMP180;7888;46.748;8.102;2022-10-23T02:13:05;94136.00;;;16.70
15575;BMP180;7888;46.748;8.102;2022-10-23T02:15:37;94146.00;;;16.70
15575;BMP180;7888;46.748;8.102;2022-10-23T02:18:28;94129.00;;;16.70
15575;BMP180;7888;46.748;8.102;2022-10-23T02:21:11;94131.00;;;16.70
15575;BMP180;7888;46.748;8.102;2022-10-23T02:23:50;94129.00;;;16.60
15575;BMP180;7888;46.748;8.102;2022-10-23T02:26:27;94131.00;;;16.60
15575;BMP180;7888;46.748;8.102;2022-10-23T02:29:03;94130.00;;;16.60
15575;BMP180;7888;46.748;8.102;2022-10-23T02:31:30;94124.00;;;16.70
15575;BMP180;7888;46.748;8.102;2022-10-23T02:33:56;94126.00;;;16.60
15575;BMP180;7888;46.748;8.102;2022-10-23T02:36:22;94125.00;;;16.60
15575;BMP180;7888;46.748;8.102;2022-10-23T02:38:48;94127.00;;;16.70
15575;BMP180;7888;46.748;8.102;2022-10-23T02:52:34;94108.00;;;16.50
15575;BMP180;7888;46.748;8.102;2022-10-23T02:55:10;94112.00;;;16.50
15575;BMP180;7888;46.748;8.102;2022-10-23T02:57:54;94095.00;;;16.40
15575;BMP180;7888;46.748;8.102;2022-10-23T03:00:22;94084.00;;;16.50
15575;BMP180;7888;46.748;8.102;2022-10-23T03:05:49;94084.00;;;16.50
15575;BMP180;7888;46.748;8.102;2022-10-23T03:08:15;94069.00;;;16.50
15575;BMP180;7888;46.748;8.102;2022-10-23T03:10:41;94064.00;;;16.50
15575;BMP180;7888;46.748;8.102;2022-10-23T03:13:09;94067.00;;;16.50
15575;BMP180;7888;46.748;8.102;2022-10-23T03:15:35;94065.00;;;16.50
15575;BMP180;7888;46.748;8.102;2022-10-23T03:18:01;94063.00;;;16.50
15575;BMP180;7888;46.748;8.102;2022-10-23T03:20:27;94059.00;;;16.50
15575;BMP180;7888;46.748;8.102;2022-10-23T03:22:53;94053.00;;;16.50
15575;BMP180;7888;46.748;8.102;2022-10-23T03:25:18;94057.00;;;16.50
15575;BMP180;7888;46.748;8.102;2022-10-23T03:27:44;94055.00;;;16.40
15575;BMP180;7888;46.748;8.102;2022-10-23T03:30:10;94052.00;;;16.40
15575;BMP180;7888;46.748;8.102;2022-10-23T03:32:36;94035.00;;;16.40
15575;BMP180;7888;46.748;8.102;2022-10-23T03:35:02;94034.00;;;16.40
15575;BMP180;7888;46.748;8.102;2022-10-23T03:37:28;94031.00;;;16.30
15575;BMP180;7888;46.748;8.102;2022-10-23T03:39:54;94039.00;;;16.40
15575;BMP180;7888;46.748;8.102;2022-10-23T03:42:20;94035.00;;;16.30
15575;BMP180;7888;46.748;8.102;2022-10-23T03:44:46;94029.00;;;16.30
15575;BMP180;7888;46.748;8.102;2022-10-23T03:47:12;94037.00;;;16.30
15575;BMP180;7888;46.748;8.102;2022-10-23T03:49:38;94027.00;;;16.30
15575;BMP180;7888;46.748;8.102;2022-10-23T03:52:06;94033.00;;;16.30
15575;BMP180;7888;46.748;8.102;2022-10-23T03:54:32;94031.00;;;16.30
15575;BMP180;7888;46.748;8.102;2022-10-23T03:56:58;94034.00;;;16.30
15575;BMP180;7888;46.748;8.102;2022-10-23T03:59:25;94024.00;;;16.30
15575;BMP180;7888;46.748;8.102;2022-10-23T04:01:51;94030.00;;;16.30
15575;BMP180;7888;46.748;8.102;2022-10-23T04:04:17;94016.00;;;16.30
15575;BMP180;7888;46.748;8.102;2022-10-23T04:06:43;94033.00;;;16.30
15575;BMP180;7888;46.748;8.102;2022-10-23T04:09:10;94028.00;;;16.30
15575;BMP180;7888;46.748;8.102;2022-10-23T04:11:36;94028.00;;;16.30
15575;BMP180;7888;46.748;8.102;2022-10-23T04:14:02;94030.00;;;16.30
15575;BMP180;7888;46.748;8.102;2022-10-23T04:16:28;94027.00;;;16.20
15575;BMP180;7888;46.748;8.102;2022-10-23T04:18:54;94013.00;;;16.30
15575;BMP180;7888;46.748;8.102;2022-10-23T04:21:20;94023.00;;;16.30
15575;BMP180;7888;46.748;8.102;2022-10-23T04:23:46;94032.00;;;16.30
15575;BMP180;7888;46.748;8.102;2022-10-23T04:26:12;94026.00;;;16.30
15575;BMP180;7888;46.748;8.102;2022-10-23T04:28:38;94021.00;;;16.30
15575;BMP180;7888;46.748;8.102;2022-10-23T04:31:04;94022.00;;;16.30
15575;BMP180;7888;46.748;8.102;2022-10-23T04:33:30;94026.00;;;16.30
15575;BMP180;7888;46.748;8.102;2022-10-23T04:35:55;94030.00;;;16.30
15575;BMP180;7888;46.748;8.102;2022-10-23T04:38:21;94033.00;;;16.30
15575;BMP180;7888;46.748;8.102;2022-10-23T04:40:47;94033.00;;;16.30
15575;BMP180;7888;46.748;8.102;2022-10-23T04:43:13;94022.00;;;16.30
15575;BMP180;7888;46.748;8.102;2022-10-23T04:45:39;94043.00;;;16.30
15575;BMP180;7888;46.748;8.102;2022-10-23T04:48:05;94040.00;;;16.30
15575;BMP180;7888;46.748;8.102;2022-10-23T04:50:30;94051.00;;;16.20
15575;BMP180;7888;46.748;8.102;2022-10-23T04:52:57;94036.00;;;16.20
15575;BMP180;7888;46.748;8.102;2022-10-23T04:55:23;94040.00;;;16.20
15575;BMP180;7888;46.748;8.102;2022-10-23T04:57:51;94052.00;;;16.10
15575;BMP180;7888;46.748;8.102;2022-10-23T05:00:17;94053.00;;;16.10
15575;BMP180;7888;46.748;8.102;2022-10-23T05:02:43;94057.00;;;16.10
15575;BMP180;7888;46.748;8.102;2022-10-23T05:05:10;94045.00;;;16.10
15575;BMP180;7888;46.748;8.102;2022-10-23T05:07:37;94037.00;;;16.10
15575;BMP180;7888;46.748;8.102;2022-10-23T05:10:04;94042.00;;;16.10
15575;BMP180;7888;46.748;8.102;2022-10-23T05:12:30;94050.00;;;16.10
15575;BMP180;7888;46.748;8.102;2022-10-23T05:14:56;94042.00;;;16.10
15575;BMP180;7888;46.748;8.102;2022-10-23T05:17:32;94053.00;;;16.10
15575;BMP180;7888;46.748;8.102;2022-10-23T05:20:03;94053.00;;;16.00
15575;BMP180;7888;46.748;8.102;2022-10-23T05:22:35;94048.00;;;16.10
15575;BMP180;7888;46.748;8.102;2022-10-23T05:25:03;94049.00;;;16.10
15575;BMP180;7888;46.748;8.102;2022-10-23T05:27:29;94062.00;;;16.10
15575;BMP180;7888;46.748;8.102;2022-10-23T05:29:56;94073.00;;;16.10
15575;BMP180;7888;46.748;8.102;2022-10-23T05:32:24;94086.00;;;16.10
15575;BMP180;7888;46.748;8.102;2022-10-23T05:34:50;94083.00;;;16.10
15575;BMP180;7888;46.748;8.102;2022-10-23T05:37:16;94077.00;;;16.00
15575;BMP180;7888;46.748;8.102;2022-10-23T05:39:42;94073.00;;;16.00
15575;BMP180;7888;46.748;8.102;2022-10-23T05:42:08;94080.00;;;16.00
15575;BMP180;7888;46.748;8.102;2022-10-23T05:44:34;94089.00;;;16.00
15575;BMP180;7888;46.748;8.102;2022-10-23T05:47:01;94090.00;;;16.00
15575;BMP180;7888;46.748;8.102;2022-10-23T05:49:27;94089.00;;;16.00
15575;BMP180;7888;46.748;8.102;2022-10-23T08:39:58;93997.00;;;17.00
15575;BMP180;7888;46.748;8.102;2022-10-23T08:42:26;93989.00;;;17.10
15575;BMP180;7888;46.748;8.102;2022-10-23T08:45:06;93998.00;;;17.20
15575;BMP180;7888;46.748;8.102;2022-10-23T08:48:03;93987.00;;;17.30
15575;BMP180;7888;46.748;8.102;2022-10-23T08:50:53;93985.00;;;17.40
15575;BMP180;7888;46.748;8.102;2022-10-23T08:53:31;93976.00;;;17.50
15575;BMP180;7888;46.748;8.102;2022-10-23T08:56:24;93975.00;;;17.60
15575;BMP180;7888;46.748;8.102;2022-10-23T09:04:27;93971.00;;;18.00
15575;BMP180;7888;46.748;8.102;2022-10-23T09:12:22;93979.00;;;18.30
15575;BMP180;7888;46.748;8.102;2022-10-23T09:17:38;93963.00;;;18.50
15575;BMP180;7888;46.748;8.102;2022-10-23T09:20:23;93958.00;;;18.60
15575;BMP180;7888;46.748;8.102;2022-10-23T09:22:54;93962.00;;;18.60
15575;BMP180;7888;46.748;8.102;2022-10-23T09:25:30;93947.00;;;18.70
15575;BMP180;7888;46.748;8.102;2022-10-23T09:28:00;93945.00;;;18.70
15575;BMP180;7888;46.748;8.102;2022-10-23T09:30:36;93947.00;;;18.80
15575;BMP180;7888;46.748;8.102;2022-10-23T09:33:26;93945.00;;;18.80
15575;BMP180;7888;46.748;8.102;2022-10-23T09:38:51;93933.00;;;18.80
15575;BMP180;7888;46.748;8.102;2022-10-23T09:41:38;93932.00;;;18.80
15575;BMP180;7888;46.748;8.102;2022-10-23T09:44:17;93932.00;;;18.90
15575;BMP180;7888;46.748;8.102;2022-10-23T09:47:14;93925.00;;;18.90
15575;BMP180;7888;46.748;8.102;2022-10-23T09:49:51;93944.00;;;19.00
15575;BMP180;7888;46.748;8.102;2022-10-23T09:54:53;93924.00;;;19.10
15575;BMP180;7888;46.748;8.102;2022-10-23T09:57:29;93925.00;;;19.20
15575;BMP180;7888;46.748;8.102;2022-10-23T10:00:26;93925.00;;;19.30
15575;BMP180;7888;46.748;8.102;2022-10-23T10:03:04;93933.00;;;19.50
15575;BMP180;7888;46.748;8.102;2022-10-23T10:05:37;93931.00;;;19.60
15575;BMP180;7888;46.748;8.102;2022-10-23T10:08:47;93935.00;;;19.80
15575;BMP180;7888;46.748;8.102;2022-10-23T10:17:36;93938.00;;;20.30
15575;BMP180;7888;46.748;8.102;2022-10-23T10:23:40;93955.00;;;20.70
15575;BMP180;7888;46.748;8.102;2022-10-23T10:26:41;93967.00;;;20.90
15575;BMP180;7888;46.748;8.102;2022-10-23T10:29:23;93962.00;;;21.10
15575;BMP180;7888;46.748;8.102;2022-10-23T10:35:39;93969.00;;;21.20
15575;BMP180;7888;46.748;8.102;2022-10-23T10:48:24;94004.00;;;21.70
15575;BMP180;7888;46.748;8.102;2022-10-23T10:50:45;94013.00;;;21.80
15575;BMP180;7888;46.748;8.102;2022-10-23T10:53:50;94011.00;;;21.90
15575;BMP180;7888;46.748;8.102;2022-10-23T10:56:21;94031.00;;;22.10
15575;BMP180;7888;46.748;8.102;2022-10-23T10:59:24;94012.00;;;22.10
15575;BMP180;7888;46.748;8.102;2022-10-23T11:02:01;94000.00;;;22.20
15575;BMP180;7888;46.748;8.102;2022-10-23T11:04:44;94029.00;;;22.20
15575;BMP180;7888;46.748;8.102;2022-10-23T11:07:19;94023.00;;;22.10
15575;BMP180;7888;46.748;8.102;2022-10-23T11:09:48;94024.00;;;22.10
15575;BMP180;7888;46.748;8.102;2022-10-23T11:12:24;94023.00;;;22.00
15575;BMP180;7888;46.748;8.102;2022-10-23T11:14:51;94028.00;;;22.10
15575;BMP180;7888;46.748;8.102;2022-10-23T11:17:27;94039.00;;;22.00
15575;BMP180;7888;46.748;8.102;2022-10-23T11:20:34;94041.00;;;21.90
15575;BMP180;7888;46.748;8.102;2022-10-23T11:23:47;94055.00;;;21.90
15575;BMP180;7888;46.748;8.102;2022-10-23T11:26:42;94040.00;;;21.90
15575;BMP180;7888;46.748;8.102;2022-10-23T11:33:25;94046.00;;;21.90
15575;BMP180;7888;46.748;8.102;2022-10-23T11:36:30;94042.00;;;21.90
15575;BMP180;7888;46.748;8.102;2022-10-23T11:39:25;94010.00;;;21.90
15575;BMP180;7888;46.748;8.102;2022-10-23T11:44:49;94015.00;;;21.90
15575;BMP180;7888;46.748;8.102;2022-10-23T11:47:37;94023.00;;;22.00
15575;BMP180;7888;46.748;8.102;2022-10-23T11:50:22;94022.00;;;22.10
15575;BMP180;7888;46.748;8.102;2022-10-23T11:52:56;94025.00;;;22.10
15575;BMP180;7888;46.748;8.102;2022-10-23T11:55:29;94014.00;;;22.10
15575;BMP180;7888;46.748;8.102;2022-10-23T11:58:17;94009.00;;;22.20
15575;BMP180;7888;46.748;8.102;2022-10-23T12:01:40;93997.00;;;22.30
15575;BMP180;7888;46.748;8.102;2022-10-23T12:06:46;94002.00;;;22.50
15575;BMP180;7888;46.748;8.102;2022-10-23T12:09:43;93977.00;;;22.50
15575;BMP180;7888;46.748;8.102;2022-10-23T12:17:37;93957.00;;;22.80
15575;BMP180;7888;46.748;8.102;2022-10-23T12:32:41;93935.00;;;23.10
15575;BMP180;7888;46.748;8.102;2022-10-23T12:38:16;93910.00;;;23.40
15575;BMP180;7888;46.748;8.102;2022-10-23T12:43:29;93895.00;;;23.70
15575;BMP180;7888;46.748;8.102;2022-10-23T12:46:24;93895.00;;;23.90
15575;BMP180;7888;46.748;8.102;2022-10-23T12:48:54;93881.00;;;24.20
15575;BMP180;7888;46.748;8.102;2022-10-23T12:51:27;93888.00;;;24.40
15575;BMP180;7888;46.748;8.102;2022-10-23T12:53:53;93873.00;;;24.50
15575;BMP180;7888;46.748;8.102;2022-10-23T12:56:20;93861.00;;;24.60
15575;BMP180;7888;46.748;8.102;2022-10-23T12:58:54;93860.00;;;24.70
15575;BMP180;7888;46.748;8.102;2022-10-23T13:01:28;93862.00;;;24.80
15575;BMP180;7888;46.748;8.102;2022-10-23T13:04:12;93854.00;;;24.90
15575;BMP180;7888;46.748;8.102;2022-10-23T13:06:40;93828.00;;;25.00
15575;BMP180;7888;46.748;8.102;2022-10-23T13:09:29;93834.00;;;25.00
15575;BMP180;7888;46.748;8.102;2022-10-23T13:11:58;93838.00;;;25.10
15575;BMP180;7888;46.748;8.102;2022-10-23T13:14:34;93837.00;;;25.10
15575;BMP180;7888;46.748;8.102;2022-10-23T13:17:07;93831.00;;;25.20
15575;BMP180;7888;46.748;8.102;2022-10-23T13:19:34;93819.00;;;25.30
15575;BMP180;7888;46.748;8.102;2022-10-23T13:22:04;93810.00;;;25.30
15575;BMP180;7888;46.748;8.102;2022-10-23T13:24:40;93799.00;;;25.30
15575;BMP180;7888;46.748;8.102;2022-10-23T13:27:25;93799.00;;;25.30
15575;BMP180;7888;46.748;8.102;2022-10-23T13:29:56;93807.00;;;25.40
15575;BMP180;7888;46.748;8.102;2022-10-23T13:32:29;93797.00;;;25.30
15575;BMP180;7888;46.748;8.102;2022-10-23T13:34:56;93811.00;;;25.40
15575;BMP180;7888;46.748;8.102;2022-10-23T13:37:28;93794.00;;;25.40
15575;BMP180;7888;46.748;8.102;2022-10-23T13:40:23;93789.00;;;25.40
15575;BMP180;7888;46.748;8.102;2022-10-23T13:42:52;93790.00;;;25.50
15575;BMP180;7888;46.748;8.102;2022-10-23T13:45:24;93785.00;;;25.50
15575;BMP180;7888;46.748;8.102;2022-10-23T13:47:51;93795.00;;;25.50
15575;BMP180;7888;46.748;8.102;2022-10-23T13:50:18;93797.00;;;25.50
15575;BMP180;7888;46.748;8.102;2022-10-23T13:52:45;93789.00;;;25.50
15575;BMP180;7888;46.748;8.102;2022-10-23T13:55:22;93790.00;;;25.50
15575;BMP180;7888;46.748;8.102;2022-10-23T13:57:49;93777.00;;;25.70
15575;BMP180;7888;46.748;8.102;2022-10-23T14:00:16;93782.00;;;25.80
15575;BMP180;7888;46.748;8.102;2022-10-23T14:02:42;93791.00;;;25.80
15575;BMP180;7888;46.748;8.102;2022-10-23T14:05:10;93777.00;;;25.90
15575;BMP180;7888;46.748;8.102;2022-10-23T14:07:36;93799.00;;;25.80
15575;BMP180;7888;46.748;8.102;2022-10-23T14:10:03;93790.00;;;25.80
15575;BMP180;7888;46.748;8.102;2022-10-23T14:12:29;93793.00;;;25.80
15575;BMP180;7888;46.748;8.102;2022-10-23T14:14:55;93793.00;;;25.90
15575;BMP180;7888;46.748;8.102;2022-10-23T14:17:21;93803.00;;;25.90
15575;BMP180;7888;46.748;8.102;2022-10-23T14:19:47;93804.00;;;25.90
15575;BMP180;7888;46.748;8.102;2022-10-23T14:22:13;93802.00;;;26.00
15575;BMP180;7888;46.748;8.102;2022-10-23T14:24:39;93816.00;;;25.90
15575;BMP180;7888;46.748;8.102;2022-10-23T14:27:04;93833.00;;;25.90
15575;BMP180;7888;46.748;8.102;2022-10-23T14:29:30;93825.00;;;25.90
15575;BMP180;7888;46.748;8.102;2022-10-23T14:31:56;93830.00;;;25.90
15575;BMP180;7888;46.748;8.102;2022-10-23T14:34:22;93831.00;;;25.90
15575;BMP180;7888;46.748;8.102;2022-10-23T14:36:48;93823.00;;;25.90
15575;BMP180;7888;46.748;8.102;2022-10-23T14:39:14;93830.00;;;25.90
15575;BMP180;7888;46.748;8.102;2022-10-23T14:41:39;93850.00;;;25.80
15575;BMP180;7888;46.748;8.102;2022-10-23T14:44:06;93860.00;;;25.80
15575;BMP180;7888;46.748;8.102;2022-10-23T14:46:32;93858.00;;;25.70
15575;BMP180;7888;46.748;8.102;2022-10-23T14:49:00;93843.00;;;25.70
15575;BMP180;7888;46.748;8.102;2022-10-23T14:51:28;93862.00;;;25.60
15575;BMP180;7888;46.748;8.102;2022-10-23T14:54:01;93852.00;;;25.60
15575;BMP180;7888;46.748;8.102;2022-10-23T14:56:29;93865.00;;;25.50
15575;BMP180;7888;46.748;8.102;2022-10-23T14:58:57;93876.00;;;25.50
15575;BMP180;7888;46.748;8.102;2022-10-23T15:01:29;93862.00;;;25.40
15575;BMP180;7888;46.748;8.102;2022-10-23T15:03:55;93861.00;;;25.30
15575;BMP180;7888;46.748;8.102;2022-10-23T15:06:22;93855.00;;;25.20
15575;BMP180;7888;46.748;8.102;2022-10-23T15:08:54;93856.00;;;25.00
15575;BMP180;7888;46.748;8.102;2022-10-23T15:11:22;93836.00;;;25.00
15575;BMP180;7888;46.748;8.102;2022-10-23T15:13:49;93845.00;;;24.80
15575;BMP180;7888;46.748;8.102;2022-10-23T15:16:15;93847.00;;;24.70
15575;BMP180;7888;46.748;8.102;2022-10-23T15:18:41;93831.00;;;24.50
15575;BMP180;7888;46.748;8.102;2022-10-23T15:21:08;93831.00;;;24.40
15575;BMP180;7888;46.748;8.102;2022-10-23T15:23:39;93828.00;;;24.40
15575;BMP180;7888;46.748;8.102;2022-10-23T15:26:09;93838.00;;;24.30
15575;BMP180;7888;46.748;8.102;2022-10-23T15:28:36;93837.00;;;24.40
15575;BMP180;7888;46.748;8.102;2022-10-23T15:31:02;93806.00;;;24.40
15575;BMP180;7888;46.748;8.102;2022-10-23T15:33:28;93808.00;;;24.40
15575;BMP180;7888;46.748;8.102;2022-10-23T15:35:55;93796.00;;;24.40
15575;BMP180;7888;46.748;8.102;2022-10-23T15:38:22;93794.00;;;24.40
15575;BMP180;7888;46.748;8.102;2022-10-23T15:40:48;93789.00;;;24.40
15575;BMP180;7888;46.748;8.102;2022-10-23T15:43:16;93799.00;;;24.30
15575;BMP180;7888;46.748;8.102;2022-10-23T15:45:42;93811.00;;;24.30
15575;BMP180;7888;46.748;8.102;2022-10-23T15:48:08;93795.00;;;24.30
15575;BMP180;7888;46.748;8.102;2022-10-23T15:50:35;93795.00;;;24.30
15575;BMP180;7888;46.748;8.102;2022-10-23T15:53:01;93794.00;;;24.30
15575;BMP180;7888;46.748;8.102;2022-10-23T15:55:27;93803.00;;;24.30
15575;BMP180;7888;46.748;8.102;2022-10-23T15:57:54;93807.00;;;24.30
15575;BMP180;7888;46.748;8.102;2022-10-23T16:00:20;93795.00;;;24.30
15575;BMP180;7888;46.748;8.102;2022-10-23T16:02:46;93804.00;;;24.30
15575;BMP180;7888;46.748;8.102;2022-10-23T16:05:12;93787.00;;;24.30
15575;BMP180;7888;46.748;8.102;2022-10-23T16:07:37;93787.00;;;24.30
15575;BMP180;7888;46.748;8.102;2022-10-23T16:10:04;93811.00;;;24.30
15575;BMP180;7888;46.748;8.102;2022-10-23T16:12:30;93802.00;;;24.30
15575;BMP180;7888;46.748;8.102;2022-10-23T16:14:56;93792.00;;;24.30
15575;BMP180;7888;46.748;8.102;2022-10-23T16:17:22;93798.00;;;24.30
15575;BMP180;7888;46.748;8.102;2022-10-23T16:19:48;93808.00;;;24.30
15575;BMP180;7888;46.748;8.102;2022-10-23T16:22:14;93798.00;;;24.30
15575;BMP180;7888;46.748;8.102;2022-10-23T16:24:42;93797.00;;;24.30
15575;BMP180;7888;46.748;8.102;2022-10-23T16:27:08;93784.00;;;24.30
15575;BMP180;7888;46.748;8.102;2022-10-23T16:29:34;93798.00;;;24.30
15575;BMP180;7888;46.748;8.102;2022-10-23T16:32:00;93799.00;;;24.30
15575;BMP180;7888;46.748;8.102;2022-10-23T16:34:25;93789.00;;;24.20
15575;BMP180;7888;46.748;8.102;2022-10-23T16:36:52;93772.00;;;24.10
15575;BMP180;7888;46.748;8.102;2022-10-23T16:39:19;93795.00;;;24.00
15575;BMP180;7888;46.748;8.102;2022-10-23T16:41:45;93771.00;;;24.10
15575;BMP180;7888;46.748;8.102;2022-10-23T16:44:11;93779.00;;;24.20
15575;BMP180;7888;46.748;8.102;2022-10-23T16:46:37;93770.00;;;24.30
15575;BMP180;7888;46.748;8.102;2022-10-23T16:49:04;93766.00;;;24.40
15575;BMP180;7888;46.748;8.102;2022-10-23T16:51:32;93771.00;;;24.50
15575;BMP180;7888;46.748;8.102;2022-10-23T16:53:59;93783.00;;;24.60
15575;BMP180;7888;46.748;8.102;2022-10-23T16:56:27;93811.00;;;24.70
15575;BMP180;7888;46.748;8.102;2022-10-23T16:58:55;93820.00;;;24.80
15575;BMP180;7888;46.748;8.102;2022-10-23T17:01:25;93777.00;;;24.90
15575;BMP180;7888;46.748;8.102;2022-10-23T17:03:53;93782.00;;;25.00
15575;BMP180;7888;46.748;8.102;2022-10-23T17:06:29;93798.00;;;25.00
15575;BMP180;7888;46.748;8.102;2022-10-23T17:08:56;93787.00;;;25.10
15575;BMP180;7888;46.748;8.102;2022-10-23T17:11:31;93806.00;;;25.10
15575;BMP180;7888;46.748;8.102;2022-10-23T17:14:27;93865.00;;;25.10
15575;BMP180;7888;46.748;8.102;2022-10-23T17:16:59;93793.00;;;25.20
15575;BMP180;7888;46.748;8.102;2022-10-23T17:19:27;93822.00;;;25.30
15575;BMP180;7888;46.748;8.102;2022-10-23T17:21:54;93844.00;;;25.30
15575;BMP180;7888;46.748;8.102;2022-10-23T17:24:21;93833.00;;;25.30
15575;BMP180;7888;46.748;8.102;2022-10-23T17:26:47;93851.00;;;25.30
15575;BMP180;7888;46.748;8.102;2022-10-23T17:29:14;93793.00;;;25.40
15575;BMP180;7888;46.748;8.102;2022-10-23T17:31:44;93818.00;;;25.40
15575;BMP180;7888;46.748;8.102;2022-10-23T17:34:15;93867.00;;;25.50
15575;BMP180;7888;46.748;8.102;2022-10-23T17:36:47;93851.00;;;25.50
15575;BMP180;7888;46.748;8.102;2022-10-23T17:39:17;93870.00;;;25.50
15575;BMP180;7888;46.748;8.102;2022-10-23T17:41:43;93880.00;;;25.50
15575;BMP180;7888;46.748;8.102;2022-10-23T17:44:10;93907.00;;;25.60
15575;BMP180;7888;46.748;8.102;2022-10-23T17:46:36;93852.00;;;25.60
15575;BMP180;7888;46.748;8.102;2022-10-23T17:49:03;93896.00;;;25.60
15575;BMP180;7888;46.748;8.102;2022-10-23T17:51:33;93885.00;;;25.60
15575;BMP180;7888;46.748;8.102;2022-10-23T17:54:05;93868.00;;;25.60
15575;BMP180;7888;46.748;8.102;2022-10-23T17:56:34;93888.00;;;25.60
15575;BMP180;7888;46.748;8.102;2022-10-23T17:59:11;93905.00;;;25.60
15575;BMP180;7888;46.748;8.102;2022-10-23T18:01:38;93894.00;;;25.70
15575;BMP180;7888;46.748;8.102;2022-10-23T18:04:06;93887.00;;;25.70
15575;BMP180;7888;46.748;8.102;2022-10-23T18:06:39;93888.00;;;25.70
15575;BMP180;7888;46.748;8.102;2022-10-23T18:09:06;93887.00;;;25.70
15575;BMP180;7888;46.748;8.102;2022-10-23T18:11:36;93909.00;;;25.60
15575;BMP180;7888;46.748;8.102;2022-10-23T18:14:04;93912.00;;;25.60
15575;BMP180;7888;46.748;8.102;2022-10-23T18:16:32;93916.00;;;25.50
15575;BMP180;7888;46.748;8.102;2022-10-23T18:18:59;93928.00;;;25.40
15575;BMP180;7888;46.748;8.102;2022-10-23T18:21:26;93929.00;;;25.30
15575;BMP180;7888;46.748;8.102;2022-10-23T18:23:52;93947.00;;;25.30
15575;BMP180;7888;46.748;8.102;2022-10-23T18:26:26;93944.00;;;25.10
15575;BMP180;7888;46.748;8.102;2022-10-23T18:28:56;93943.00;;;25.00
15575;BMP180;7888;46.748;8.102;2022-10-23T18:31:25;93941.00;;;25.00
15575;BMP180;7888;46.748;8.102;2022-10-23T18:34:07;93962.00;;;24.90
15575;BMP180;7888;46.748;8.102;2022-10-23T18:36:39;93969.00;;;24.90
15575;BMP180;7888;46.748;8.102;2022-10-23T18:39:07;93961.00;;;24.80
15575;BMP180;7888;46.748;8.102;2022-10-23T18:41:38;93957.00;;;24.70
15575;BMP180;7888;46.748;8.102;2022-10-23T18:44:05;93970.00;;;24.60
15575;BMP180;7888;46.748;8.102;2022-10-23T18:46:31;93971.00;;;24.60
15575;BMP180;7888;46.748;8.102;2022-10-23T18:48:57;93983.00;;;24.50
15575;BMP180;7888;46.748;8.102;2022-10-23T18:51:27;93985.00;;;24.40
15575;BMP180;7888;46.748;8.102;2022-10-23T18:53:54;93996.00;;;24.30
15575;BMP180;7888;46.748;8.102;2022-10-23T18:56:23;93991.00;;;24.30
15575;BMP180;7888;46.748;8.102;2022-10-23T18:58:54;94010.00;;;24.20
15575;BMP180;7888;46.748;8.102;2022-10-23T19:01:23;94007.00;;;24.10
15575;BMP180;7888;46.748;8.102;2022-10-23T19:03:49;93998.00;;;24.00
15575;BMP180;7888;46.748;8.102;2022-10-23T19:06:16;94004.00;;;23.90
15575;BMP180;7888;46.748;8.102;2022-10-23T19:08:43;93992.00;;;23.90
15575;BMP180;7888;46.748;8.102;2022-10-23T19:11:12;93995.00;;;23.80
15575;BMP180;7888;46.748;8.102;2022-10-23T19:13:38;93999.00;;;23.80
15575;BMP180;7888;46.748;8.102;2022-10-23T19:16:15;94005.00;;;23.70